createdAt,value
2022-11-25T00:03:49.360Z,100.00
2022-11-25T00:08:56.795Z,100.00
2022-11-25T00:13:59.375Z,100.00
2022-11-25T00:19:01.957Z,100.00
2022-11-25T00:24:08.228Z,100.00
2022-11-25T00:29:12.885Z,98.56
2022-11-25T00:34:16.076Z,96.97
2022-11-25T00:39:24.439Z,95.74
2022-11-25T00:44:40.695Z,95.86
2022-11-25T00:49:45.313Z,97.89
2022-11-25T00:54:51.158Z,98.58
2022-11-25T00:59:53.696Z,97.53
2022-11-25T01:04:56.397Z,96.39
2022-11-25T01:10:00.375Z,97.20
2022-11-25T01:15:03.007Z,98.55
2022-11-25T01:20:09.802Z,96.86
2022-11-25T01:25:13.722Z,96.65
2022-11-25T01:30:16.657Z,95.00
2022-11-25T01:35:19.236Z,94.83
2022-11-25T01:40:24.658Z,94.81
2022-11-25T01:45:35.461Z,95.40
2022-11-25T01:50:38.540Z,97.63
2022-11-25T01:55:45.911Z,97.89
2022-11-25T02:00:51.379Z,99.43
2022-11-25T02:06:03.813Z,98.01
2022-11-25T02:11:07.984Z,97.43
2022-11-25T02:16:10.875Z,96.58
2022-11-25T02:21:18.303Z,95.38
2022-11-25T02:26:22.444Z,94.69
2022-11-25T02:31:25.209Z,94.42
2022-11-25T02:36:27.946Z,97.98
2022-11-25T02:41:34.063Z,98.62
2022-11-25T02:46:36.658Z,98.77
2022-11-25T02:51:41.257Z,100.00
2022-11-25T02:56:45.470Z,100.00
2022-11-25T03:01:48.116Z,100.00
2022-11-25T03:06:50.716Z,100.00
2022-11-25T03:12:12.237Z,99.93
2022-11-25T03:17:14.816Z,97.99
2022-11-25T03:22:17.365Z,97.37
2022-11-25T03:27:21.323Z,96.23
2022-11-25T03:32:23.919Z,96.83
2022-11-25T03:37:26.510Z,97.67
2022-11-25T03:42:30.640Z,100.00
2022-11-25T03:47:34.082Z,97.29
2022-11-25T03:52:36.721Z,96.61
2022-11-25T03:57:41.294Z,95.55
2022-11-25T04:02:43.914Z,96.94
2022-11-25T04:07:46.604Z,96.21
2022-11-25T04:12:52.466Z,95.98
2022-11-25T04:17:55.051Z,96.22
2022-11-25T04:22:57.606Z,96.63
2022-11-25T04:28:01.547Z,96.21
2022-11-25T04:33:04.193Z,95.52
2022-11-25T04:38:06.754Z,96.32
2022-11-25T04:43:10.906Z,99.00
2022-11-25T04:48:13.556Z,97.47
2022-11-25T04:53:16.441Z,97.25
2022-11-25T04:58:40.394Z,96.17
2022-11-25T05:03:48.792Z,96.34
2022-11-25T05:08:53.464Z,95.78
2022-11-25T05:13:57.388Z,95.50
2022-11-25T05:18:59.937Z,95.28
2022-11-25T05:24:02.543Z,96.11
2022-11-25T05:29:06.576Z,97.23
2022-11-25T05:34:09.321Z,97.76
2022-11-25T05:39:11.878Z,96.57
2022-11-25T05:44:21.223Z,96.37
2022-11-25T05:49:26.042Z,97.35
2022-11-25T05:54:28.625Z,95.47
2022-11-25T05:59:32.535Z,98.25
2022-11-25T06:04:35.372Z,99.44
2022-11-25T06:09:38.381Z,100.00
2022-11-25T06:14:42.288Z,100.00
2022-11-25T06:19:47.942Z,100.00
2022-11-25T06:24:58.925Z,100.00
2022-11-25T06:30:15.358Z,99.85
2022-11-25T06:35:18.386Z,99.09
2022-11-25T06:40:21.292Z,98.02
2022-11-25T06:45:25.282Z,97.01
2022-11-25T06:50:27.928Z,98.56
2022-11-25T06:55:30.511Z,98.25
2022-11-25T07:00:34.561Z,97.68
2022-11-25T07:05:37.453Z,96.86
2022-11-25T07:10:40.078Z,96.52
2022-11-25T07:15:44.068Z,96.74
2022-11-25T07:20:46.808Z,98.76
2022-11-25T07:25:49.690Z,99.48
2022-11-25T07:36:16.343Z,98.27
2022-11-25T07:41:20.661Z,100.00
2022-11-25T07:46:27.343Z,100.00
2022-11-25T07:51:33.213Z,99.11
2022-11-25T07:56:37.497Z,99.24
2022-11-25T08:01:42.334Z,99.02
2022-11-25T08:06:46.800Z,99.01
2022-11-25T08:11:52.175Z,100.00
2022-11-25T08:16:56.101Z,99.82
2022-11-25T08:21:58.877Z,98.13
2022-11-25T08:27:01.944Z,100.00
2022-11-25T08:32:11.845Z,100.00
2022-11-25T08:37:14.763Z,100.00
2022-11-25T08:42:17.489Z,98.91
2022-11-25T08:47:21.675Z,97.40
2022-11-25T08:52:24.787Z,96.69
2022-11-25T08:57:27.610Z,94.34
2022-11-25T09:02:31.714Z,96.44
2022-11-25T09:07:34.425Z,95.66
2022-11-25T09:12:37.473Z,91.78
2022-11-25T09:17:41.422Z,89.99
2022-11-25T09:22:45.213Z,88.67
2022-11-25T09:27:47.886Z,86.72
2022-11-25T09:32:53.863Z,87.89
2022-11-25T09:37:56.494Z,85.68
2022-11-25T09:43:25.548Z,85.32
2022-11-25T09:48:52.589Z,84.24
2022-11-25T09:53:57.900Z,82.29
2022-11-25T09:59:06.422Z,79.44
2022-11-25T10:04:14.389Z,76.02
2022-11-25T10:09:23.419Z,75.01
2022-11-25T10:14:31.944Z,75.47
2022-11-25T10:19:44.739Z,76.07
2022-11-25T10:24:47.727Z,73.63
2022-11-25T10:30:00.161Z,76.51
2022-11-25T10:35:09.039Z,77.23
2022-11-25T10:40:15.952Z,78.16
2022-11-25T10:45:21.736Z,79.36
2022-11-25T10:50:32.404Z,80.17
2022-11-25T10:55:35.102Z,82.94
2022-11-25T11:00:39.239Z,81.58
2022-11-25T11:05:48.929Z,81.10
2022-11-25T11:11:11.376Z,80.51
2022-11-25T11:16:28.739Z,78.45
2022-11-25T11:21:35.530Z,79.81
2022-11-25T11:26:38.371Z,77.04
2022-11-25T11:31:45.468Z,71.90
2022-11-25T11:37:05.784Z,74.97
2022-11-25T11:42:15.150Z,71.80
2022-11-25T11:47:27.287Z,68.81
2022-11-25T11:52:41.844Z,65.67
2022-11-25T11:57:50.330Z,61.83
2022-11-25T12:03:00.684Z,62.99
2022-11-25T12:08:11.080Z,63.17
2022-11-25T12:13:20.911Z,62.47
2022-11-25T12:18:46.062Z,61.51
2022-11-25T12:23:59.508Z,62.07
2022-11-25T12:29:06.762Z,64.84
2022-11-25T12:34:16.270Z,66.09
2022-11-25T12:39:27.241Z,65.18
2022-11-25T12:44:34.665Z,67.13
2022-11-25T12:49:43.672Z,69.74
2022-11-25T12:55:06.747Z,69.12
2022-11-25T13:00:40.384Z,72.09
2022-11-25T13:05:59.620Z,73.62
2022-11-25T13:11:25.779Z,74.35
2022-11-25T13:16:30.044Z,75.56
2022-11-25T13:21:33.195Z,76.34
2022-11-25T13:26:54.118Z,76.98
2022-11-25T13:31:59.479Z,79.92
2022-11-25T13:37:04.302Z,82.63
2022-11-25T13:42:14.825Z,84.13
2022-11-25T13:47:32.113Z,82.13
2022-11-25T13:52:41.642Z,85.42
2022-11-25T17:31:47.244Z,100.00
2022-11-25T17:36:52.059Z,100.00
2022-11-25T17:41:54.607Z,100.00
2022-11-25T17:46:59.729Z,100.00
2022-11-25T17:52:02.378Z,100.00
2022-11-25T17:57:06.199Z,100.00
2022-11-25T18:02:18.404Z,100.00
2022-11-25T18:07:21.091Z,99.83
2022-11-25T18:12:31.886Z,100.00
2022-11-25T18:17:37.205Z,99.91
2022-11-25T18:22:39.726Z,99.07
2022-11-25T18:27:42.809Z,99.28
2022-11-25T18:32:47.206Z,100.00
2022-11-25T18:37:49.985Z,100.00
2022-11-25T18:42:57.879Z,98.96
2022-11-25T18:48:02.031Z,97.93
2022-11-25T18:53:04.593Z,98.91
2022-11-25T18:58:16.357Z,98.61
2022-11-25T19:03:22.766Z,97.83
2022-11-25T19:08:25.360Z,97.22
2022-11-25T19:13:33.933Z,96.97
2022-11-25T19:18:38.036Z,99.34
2022-11-25T19:23:41.538Z,100.00
2022-11-25T19:28:49.516Z,100.00
2022-11-25T19:33:55.455Z,99.53
2022-11-25T19:38:58.902Z,99.37
2022-11-25T19:44:01.536Z,99.27
2022-11-25T19:49:06.528Z,100.00
2022-11-25T19:54:13.110Z,98.63
2022-11-25T19:59:15.823Z,97.09
2022-11-25T20:04:21.796Z,95.96
2022-11-25T20:09:24.336Z,98.23
2022-11-25T20:14:34.536Z,99.00
2022-11-25T20:19:39.084Z,100.00
2022-11-25T20:24:41.713Z,100.00
2022-11-25T20:29:44.393Z,100.00
2022-11-25T20:34:48.529Z,98.69
2022-11-25T20:39:53.390Z,100.00
2022-11-25T20:44:57.828Z,97.68
2022-11-25T20:50:01.922Z,99.64
2022-11-25T20:55:15.744Z,98.90
2022-11-25T21:00:20.937Z,100.00
2022-11-25T21:05:25.034Z,100.00
2022-11-25T21:10:30.049Z,100.00
2022-11-25T21:15:32.775Z,100.00
2022-11-25T21:20:37.187Z,100.00
2022-11-25T21:25:39.819Z,100.00
2022-11-25T21:30:42.458Z,100.00
2022-11-25T21:35:49.024Z,100.00
2022-11-25T21:40:53.943Z,100.00
2022-11-25T21:46:01.985Z,100.00
2022-11-25T21:51:06.301Z,100.00
2022-11-25T21:56:18.305Z,100.00
2022-11-25T22:01:24.819Z,100.00
2022-11-25T22:06:33.500Z,100.00
2022-11-25T22:11:38.883Z,100.00
2022-11-25T22:16:41.768Z,100.00
2022-11-25T22:21:45.811Z,100.00
2022-11-25T22:26:56.005Z,99.81
2022-11-25T22:32:00.345Z,98.20
2022-11-25T22:37:04.345Z,100.00
2022-11-25T22:42:07.915Z,100.00
2022-11-25T22:47:18.023Z,100.00
2022-11-25T22:52:24.899Z,100.00
2022-11-25T22:57:27.440Z,100.00
2022-11-25T23:02:34.875Z,100.00
2022-11-25T23:07:38.830Z,100.00
2022-11-25T23:12:41.485Z,100.00
2022-11-25T23:17:49.320Z,100.00
2022-11-25T23:22:53.327Z,100.00
2022-11-25T23:27:57.057Z,100.00
2022-11-25T23:32:59.810Z,100.00
2022-11-25T23:38:04.403Z,100.00
2022-11-25T23:43:09.704Z,99.91
2022-11-25T23:48:12.354Z,100.00
2022-11-25T23:53:23.236Z,100.00
2022-11-25T23:58:25.819Z,100.00
